Terminal Aerodrome Forecast
Issued by NWS Lake Charles, LA

Home | Current Version | Previous Version | Text Only | Print | Product List | Glossary On
Versions: 1 2 3 4 5 6 7 8 9 10 11 12 13 14 15 16 17 18 19 20
000
FTUS44 KLCH 220258 AAB
TAFLCH
TAF AMD
KLCH 220258Z 2203/2224 17012G19KT P6SM VCSH OVC007
     FM220600 15006KT 4SM BR VCSH OVC007
     FM221400 15008KT P6SM VCSH OVC012
     FM221800 17014G21KT P6SM BKN020=

USA.gov is the U.S. government's official web portal to all federal, state and local government web resources and services.